sensor_id;sensor_type;location;lat;lon;timestamp;P1;durP1;ratioP1;P2;durP2;ratioP2
75005;SDS011;63553;51.814;4.600;2023-03-17T00:00:11;3.65;;;2.40;;
75005;SDS011;63553;51.814;4.600;2023-03-17T00:02:39;2.50;;;2.30;;
75005;SDS011;63553;51.814;4.600;2023-03-17T00:07:49;2.13;;;2.03;;
75005;SDS011;63553;51.814;4.600;2023-03-17T00:10:25;2.80;;;2.40;;
75005;SDS011;63553;51.814;4.600;2023-03-17T00:12:52;2.33;;;2.10;;
75005;SDS011;63553;51.814;4.600;2023-03-17T00:15:19;3.25;;;2.40;;
75005;SDS011;63553;51.814;4.600;2023-03-17T00:17:46;2.33;;;2.13;;
75005;SDS011;63553;51.814;4.600;2023-03-17T00:20:23;2.83;;;2.28;;
75005;SDS011;63553;51.814;4.600;2023-03-17T00:22:51;2.72;;;2.03;;
75005;SDS011;63553;51.814;4.600;2023-03-17T00:27:46;2.30;;;2.10;;
75005;SDS011;63553;51.814;4.600;2023-03-17T00:30:12;2.58;;;2.38;;
75005;SDS011;63553;51.814;4.600;2023-03-17T00:32:38;2.30;;;2.10;;
75005;SDS011;63553;51.814;4.600;2023-03-17T00:35:04;2.47;;;2.13;;
75005;SDS011;63553;51.814;4.600;2023-03-17T00:37:39;2.92;;;2.42;;
75005;SDS011;63553;51.814;4.600;2023-03-17T00:40:08;2.35;;;2.15;;
75005;SDS011;63553;51.814;4.600;2023-03-17T00:42:39;2.25;;;1.92;;
75005;SDS011;63553;51.814;4.600;2023-03-17T00:45:04;2.15;;;2.05;;
75005;SDS011;63553;51.814;4.600;2023-03-17T00:47:30;2.08;;;1.88;;
75005;SDS011;63553;51.814;4.600;2023-03-17T00:49:56;2.17;;;1.98;;
75005;SDS011;63553;51.814;4.600;2023-03-17T00:52:22;3.33;;;2.08;;
75005;SDS011;63553;51.814;4.600;2023-03-17T00:54:47;2.67;;;2.10;;
75005;SDS011;63553;51.814;4.600;2023-03-17T00:57:13;1.65;;;1.55;;
75005;SDS011;63553;51.814;4.600;2023-03-17T00:59:39;2.10;;;2.00;;
75005;SDS011;63553;51.814;4.600;2023-03-17T01:02:08;2.97;;;2.00;;
75005;SDS011;63553;51.814;4.600;2023-03-17T01:04:35;3.00;;;2.00;;
75005;SDS011;63553;51.814;4.600;2023-03-17T01:07:00;1.97;;;1.83;;
75005;SDS011;63553;51.814;4.600;2023-03-17T01:09:26;2.30;;;2.10;;
75005;SDS011;63553;51.814;4.600;2023-03-17T01:11:52;1.92;;;1.75;;
75005;SDS011;63553;51.814;4.600;2023-03-17T01:14:19;2.10;;;1.85;;
75005;SDS011;63553;51.814;4.600;2023-03-17T01:16:45;2.67;;;1.90;;
75005;SDS011;63553;51.814;4.600;2023-03-17T01:19:11;2.00;;;1.80;;
75005;SDS011;63553;51.814;4.600;2023-03-17T01:21:37;2.05;;;1.85;;
75005;SDS011;63553;51.814;4.600;2023-03-17T01:24:03;1.92;;;1.83;;
75005;SDS011;63553;51.814;4.600;2023-03-17T01:26:29;4.47;;;2.00;;
75005;SDS011;63553;51.814;4.600;2023-03-17T01:28:54;1.88;;;1.77;;
75005;SDS011;63553;51.814;4.600;2023-03-17T01:31:19;3.00;;;1.80;;
75005;SDS011;63553;51.814;4.600;2023-03-17T01:33:45;2.60;;;1.80;;
75005;SDS011;63553;51.814;4.600;2023-03-17T01:36:11;2.30;;;2.10;;
75005;SDS011;63553;51.814;4.600;2023-03-17T01:38:36;2.88;;;2.30;;
75005;SDS011;63553;51.814;4.600;2023-03-17T01:41:02;2.73;;;2.00;;
75005;SDS011;63553;51.814;4.600;2023-03-17T01:43:28;1.70;;;1.60;;
75005;SDS011;63553;51.814;4.600;2023-03-17T01:51:41;1.85;;;1.70;;
75005;SDS011;63553;51.814;4.600;2023-03-17T01:54:20;1.88;;;1.77;;
75005;SDS011;63553;51.814;4.600;2023-03-17T01:56:47;2.35;;;2.15;;
75005;SDS011;63553;51.814;4.600;2023-03-17T01:59:17;2.00;;;1.80;;
75005;SDS011;63553;51.814;4.600;2023-03-17T02:01:47;2.28;;;1.77;;
75005;SDS011;63553;51.814;4.600;2023-03-17T02:04:17;2.13;;;1.98;;
75005;SDS011;63553;51.814;4.600;2023-03-17T02:06:43;2.55;;;1.95;;
75005;SDS011;63553;51.814;4.600;2023-03-17T02:09:10;2.47;;;1.80;;
75005;SDS011;63553;51.814;4.600;2023-03-17T02:11:36;1.88;;;1.77;;
75005;SDS011;63553;51.814;4.600;2023-03-17T02:14:02;2.00;;;1.80;;
75005;SDS011;63553;51.814;4.600;2023-03-17T02:16:28;1.70;;;1.60;;
75005;SDS011;63553;51.814;4.600;2023-03-17T02:18:54;1.80;;;1.70;;
75005;SDS011;63553;51.814;4.600;2023-03-17T02:24:09;1.90;;;1.80;;
75005;SDS011;63553;51.814;4.600;2023-03-17T02:26:43;2.17;;;1.60;;
75005;SDS011;63553;51.814;4.600;2023-03-17T02:29:10;2.80;;;1.90;;
75005;SDS011;63553;51.814;4.600;2023-03-17T02:31:36;1.98;;;1.88;;
75005;SDS011;63553;51.814;4.600;2023-03-17T02:34:02;1.80;;;1.65;;
75005;SDS011;63553;51.814;4.600;2023-03-17T02:36:27;1.80;;;1.70;;
75005;SDS011;63553;51.814;4.600;2023-03-17T02:38:53;1.70;;;1.60;;
75005;SDS011;63553;51.814;4.600;2023-03-17T02:41:19;1.80;;;1.70;;
75005;SDS011;63553;51.814;4.600;2023-03-17T02:43:46;1.90;;;1.75;;
75005;SDS011;63553;51.814;4.600;2023-03-17T02:46:11;1.95;;;1.80;;
75005;SDS011;63553;51.814;4.600;2023-03-17T02:48:37;1.90;;;1.80;;
75005;SDS011;63553;51.814;4.600;2023-03-17T02:51:03;2.65;;;1.83;;
75005;SDS011;63553;51.814;4.600;2023-03-17T02:53:29;2.70;;;1.95;;
75005;SDS011;63553;51.814;4.600;2023-03-17T02:55:55;1.83;;;1.70;;
75005;SDS011;63553;51.814;4.600;2023-03-17T02:58:21;2.10;;;2.00;;
75005;SDS011;63553;51.814;4.600;2023-03-17T03:00:47;1.85;;;1.70;;
75005;SDS011;63553;51.814;4.600;2023-03-17T03:03:13;1.60;;;1.50;;
75005;SDS011;63553;51.814;4.600;2023-03-17T03:05:39;1.80;;;1.70;;
75005;SDS011;63553;51.814;4.600;2023-03-17T03:08:05;1.70;;;1.60;;
75005;SDS011;63553;51.814;4.600;2023-03-17T03:10:30;1.83;;;1.73;;
75005;SDS011;63553;51.814;4.600;2023-03-17T03:12:56;2.40;;;1.85;;
75005;SDS011;63553;51.814;4.600;2023-03-17T03:15:21;2.38;;;1.80;;
75005;SDS011;63553;51.814;4.600;2023-03-17T03:17:47;1.80;;;1.70;;
75005;SDS011;63553;51.814;4.600;2023-03-17T03:20:12;1.90;;;1.80;;
75005;SDS011;63553;51.814;4.600;2023-03-17T03:22:38;1.70;;;1.55;;
75005;SDS011;63553;51.814;4.600;2023-03-17T03:25:04;2.00;;;1.90;;
75005;SDS011;63553;51.814;4.600;2023-03-17T03:27:31;1.73;;;1.63;;
75005;SDS011;63553;51.814;4.600;2023-03-17T03:29:56;1.70;;;1.60;;
75005;SDS011;63553;51.814;4.600;2023-03-17T03:32:22;1.80;;;1.70;;
75005;SDS011;63553;51.814;4.600;2023-03-17T03:34:47;1.65;;;1.55;;
75005;SDS011;63553;51.814;4.600;2023-03-17T03:37:13;1.80;;;1.70;;
75005;SDS011;63553;51.814;4.600;2023-03-17T03:39:39;2.10;;;1.90;;
75005;SDS011;63553;51.814;4.600;2023-03-17T03:42:04;2.70;;;1.83;;
75005;SDS011;63553;51.814;4.600;2023-03-17T03:44:30;2.05;;;1.58;;
75005;SDS011;63553;51.814;4.600;2023-03-17T03:46:56;2.00;;;1.80;;
75005;SDS011;63553;51.814;4.600;2023-03-17T03:49:21;1.93;;;1.70;;
75005;SDS011;63553;51.814;4.600;2023-03-17T03:51:47;1.92;;;1.80;;
75005;SDS011;63553;51.814;4.600;2023-03-17T03:54:12;1.95;;;1.85;;
75005;SDS011;63553;51.814;4.600;2023-03-17T03:56:37;2.03;;;1.83;;
75005;SDS011;63553;51.814;4.600;2023-03-17T03:59:03;1.83;;;1.73;;
75005;SDS011;63553;51.814;4.600;2023-03-17T04:01:28;1.90;;;1.77;;
75005;SDS011;63553;51.814;4.600;2023-03-17T04:03:53;1.90;;;1.80;;
75005;SDS011;63553;51.814;4.600;2023-03-17T04:06:19;2.75;;;2.00;;
75005;SDS011;63553;51.814;4.600;2023-03-17T04:08:44;2.17;;;1.98;;
75005;SDS011;63553;51.814;4.600;2023-03-17T04:11:10;2.97;;;2.10;;
75005;SDS011;63553;51.814;4.600;2023-03-17T04:13:35;5.47;;;1.90;;
75005;SDS011;63553;51.814;4.600;2023-03-17T04:16:01;2.22;;;1.83;;
75005;SDS011;63553;51.814;4.600;2023-03-17T04:18:27;3.63;;;2.30;;
75005;SDS011;63553;51.814;4.600;2023-03-17T04:20:52;2.28;;;1.95;;
75005;SDS011;63553;51.814;4.600;2023-03-17T04:23:18;2.10;;;1.90;;
75005;SDS011;63553;51.814;4.600;2023-03-17T04:25:43;2.45;;;1.75;;
75005;SDS011;63553;51.814;4.600;2023-03-17T04:28:09;1.90;;;1.80;;
75005;SDS011;63553;51.814;4.600;2023-03-17T04:30:34;2.38;;;2.00;;
75005;SDS011;63553;51.814;4.600;2023-03-17T04:33:00;1.95;;;1.85;;
75005;SDS011;63553;51.814;4.600;2023-03-17T04:35:26;2.10;;;2.00;;
75005;SDS011;63553;51.814;4.600;2023-03-17T04:37:51;2.35;;;2.15;;
75005;SDS011;63553;51.814;4.600;2023-03-17T04:40:17;1.70;;;1.60;;
75005;SDS011;63553;51.814;4.600;2023-03-17T04:42:43;1.77;;;1.67;;
75005;SDS011;63553;51.814;4.600;2023-03-17T04:45:09;2.72;;;2.00;;
75005;SDS011;63553;51.814;4.600;2023-03-17T04:47:38;64.38;;;19.42;;
75005;SDS011;63553;51.814;4.600;2023-03-17T04:50:03;37.85;;;11.45;;
75005;SDS011;63553;51.814;4.600;2023-03-17T04:52:29;37.08;;;11.20;;
75005;SDS011;63553;51.814;4.600;2023-03-17T04:54:55;34.20;;;9.77;;
75005;SDS011;63553;51.814;4.600;2023-03-17T04:57:20;30.55;;;9.85;;
75005;SDS011;63553;51.814;4.600;2023-03-17T04:59:46;30.67;;;8.93;;
75005;SDS011;63553;51.814;4.600;2023-03-17T05:02:11;25.02;;;8.82;;
75005;SDS011;63553;51.814;4.600;2023-03-17T05:04:37;21.77;;;8.07;;
75005;SDS011;63553;51.814;4.600;2023-03-17T05:07:02;21.63;;;8.20;;
75005;SDS011;63553;51.814;4.600;2023-03-17T05:09:28;20.00;;;7.05;;
75005;SDS011;63553;51.814;4.600;2023-03-17T05:11:54;18.27;;;6.20;;
75005;SDS011;63553;51.814;4.600;2023-03-17T05:14:19;19.33;;;6.47;;
75005;SDS011;63553;51.814;4.600;2023-03-17T05:16:45;21.08;;;6.90;;
75005;SDS011;63553;51.814;4.600;2023-03-17T05:19:12;16.75;;;6.03;;
75005;SDS011;63553;51.814;4.600;2023-03-17T05:21:37;16.38;;;6.10;;
75005;SDS011;63553;51.814;4.600;2023-03-17T05:24:03;13.40;;;5.33;;
75005;SDS011;63553;51.814;4.600;2023-03-17T05:26:29;14.80;;;5.95;;
75005;SDS011;63553;51.814;4.600;2023-03-17T05:28:54;16.05;;;5.80;;
75005;SDS011;63553;51.814;4.600;2023-03-17T05:31:19;13.73;;;4.93;;
75005;SDS011;63553;51.814;4.600;2023-03-17T05:33:45;11.82;;;4.90;;
75005;SDS011;63553;51.814;4.600;2023-03-17T05:36:13;9.98;;;4.40;;
75005;SDS011;63553;51.814;4.600;2023-03-17T05:38:38;10.60;;;4.13;;
75005;SDS011;63553;51.814;4.600;2023-03-17T05:41:04;12.93;;;5.00;;
75005;SDS011;63553;51.814;4.600;2023-03-17T05:43:29;10.77;;;4.30;;
75005;SDS011;63553;51.814;4.600;2023-03-17T05:45:55;8.45;;;3.92;;
75005;SDS011;63553;51.814;4.600;2023-03-17T05:48:20;8.87;;;4.13;;
75005;SDS011;63553;51.814;4.600;2023-03-17T05:50:47;8.23;;;3.90;;
75005;SDS011;63553;51.814;4.600;2023-03-17T05:53:13;8.07;;;4.28;;
75005;SDS011;63553;51.814;4.600;2023-03-17T05:55:38;6.15;;;3.80;;
75005;SDS011;63553;51.814;4.600;2023-03-17T05:58:04;6.95;;;3.58;;
75005;SDS011;63553;51.814;4.600;2023-03-17T06:00:30;8.35;;;3.55;;
75005;SDS011;63553;51.814;4.600;2023-03-17T06:02:56;7.15;;;3.90;;
75005;SDS011;63553;51.814;4.600;2023-03-17T06:05:21;8.13;;;3.60;;
75005;SDS011;63553;51.814;4.600;2023-03-17T06:07:47;7.20;;;3.22;;
75005;SDS011;63553;51.814;4.600;2023-03-17T06:10:13;5.45;;;3.28;;
75005;SDS011;63553;51.814;4.600;2023-03-17T06:12:38;8.57;;;3.50;;
75005;SDS011;63553;51.814;4.600;2023-03-17T06:15:04;7.72;;;3.13;;
75005;SDS011;63553;51.814;4.600;2023-03-17T06:17:30;7.88;;;3.03;;
75005;SDS011;63553;51.814;4.600;2023-03-17T06:19:55;8.93;;;3.28;;
75005;SDS011;63553;51.814;4.600;2023-03-17T06:22:21;5.83;;;2.63;;
75005;SDS011;63553;51.814;4.600;2023-03-17T06:24:46;5.10;;;2.42;;
75005;SDS011;63553;51.814;4.600;2023-03-17T06:27:12;3.42;;;1.80;;
75005;SDS011;63553;51.814;4.600;2023-03-17T06:29:38;3.88;;;2.00;;
75005;SDS011;63553;51.814;4.600;2023-03-17T06:32:04;3.42;;;2.00;;
75005;SDS011;63553;51.814;4.600;2023-03-17T06:34:29;2.67;;;1.90;;
75005;SDS011;63553;51.814;4.600;2023-03-17T06:36:55;1.90;;;1.70;;
75005;SDS011;63553;51.814;4.600;2023-03-17T06:39:20;2.00;;;1.88;;
75005;SDS011;63553;51.814;4.600;2023-03-17T06:41:46;2.70;;;1.98;;
75005;SDS011;63553;51.814;4.600;2023-03-17T06:44:11;3.60;;;2.30;;
75005;SDS011;63553;51.814;4.600;2023-03-17T06:46:38;4.55;;;2.05;;
75005;SDS011;63553;51.814;4.600;2023-03-17T06:49:03;2.05;;;1.80;;
75005;SDS011;63553;51.814;4.600;2023-03-17T06:51:29;2.00;;;1.90;;
75005;SDS011;63553;51.814;4.600;2023-03-17T06:53:56;4.05;;;2.05;;
75005;SDS011;63553;51.814;4.600;2023-03-17T06:56:21;2.70;;;1.75;;
75005;SDS011;63553;51.814;4.600;2023-03-17T06:58:47;4.13;;;1.80;;
75005;SDS011;63553;51.814;4.600;2023-03-17T07:01:12;2.80;;;1.80;;
75005;SDS011;63553;51.814;4.600;2023-03-17T07:03:38;3.50;;;2.15;;
75005;SDS011;63553;51.814;4.600;2023-03-17T07:06:04;2.28;;;1.80;;
75005;SDS011;63553;51.814;4.600;2023-03-17T07:08:30;5.35;;;2.03;;
75005;SDS011;63553;51.814;4.600;2023-03-17T07:10:56;2.72;;;2.03;;
75005;SDS011;63553;51.814;4.600;2023-03-17T07:13:21;2.20;;;1.73;;
75005;SDS011;63553;51.814;4.600;2023-03-17T07:15:48;6.28;;;1.90;;
75005;SDS011;63553;51.814;4.600;2023-03-17T07:18:13;2.53;;;1.90;;
75005;SDS011;63553;51.814;4.600;2023-03-17T07:20:39;2.80;;;1.90;;
75005;SDS011;63553;51.814;4.600;2023-03-17T07:23:05;2.47;;;1.98;;
75005;SDS011;63553;51.814;4.600;2023-03-17T07:25:30;2.05;;;1.90;;
75005;SDS011;63553;51.814;4.600;2023-03-17T07:27:55;2.97;;;1.80;;
75005;SDS011;63553;51.814;4.600;2023-03-17T07:30:21;2.92;;;1.70;;
75005;SDS011;63553;51.814;4.600;2023-03-17T07:32:46;1.83;;;1.73;;
75005;SDS011;63553;51.814;4.600;2023-03-17T07:35:12;2.35;;;1.77;;
75005;SDS011;63553;51.814;4.600;2023-03-17T07:37:39;2.30;;;1.80;;
75005;SDS011;63553;51.814;4.600;2023-03-17T07:40:06;2.72;;;1.80;;
75005;SDS011;63553;51.814;4.600;2023-03-17T07:42:33;1.92;;;1.70;;
75005;SDS011;63553;51.814;4.600;2023-03-17T07:44:59;5.05;;;1.90;;
75005;SDS011;63553;51.814;4.600;2023-03-17T07:47:24;5.37;;;2.00;;
75005;SDS011;63553;51.814;4.600;2023-03-17T07:49:50;3.83;;;2.30;;
75005;SDS011;63553;51.814;4.600;2023-03-17T07:52:16;7.03;;;2.28;;
75005;SDS011;63553;51.814;4.600;2023-03-17T07:54:41;2.07;;;1.70;;
75005;SDS011;63553;51.814;4.600;2023-03-17T07:57:07;2.85;;;1.70;;
75005;SDS011;63553;51.814;4.600;2023-03-17T07:59:33;2.97;;;1.98;;
75005;SDS011;63553;51.814;4.600;2023-03-17T08:01:58;2.88;;;1.95;;
75005;SDS011;63553;51.814;4.600;2023-03-17T08:04:25;2.40;;;2.00;;
75005;SDS011;63553;51.814;4.600;2023-03-17T08:06:51;2.00;;;1.85;;
75005;SDS011;63553;51.814;4.600;2023-03-17T08:09:18;4.80;;;2.00;;
75005;SDS011;63553;51.814;4.600;2023-03-17T08:11:45;2.83;;;2.00;;
75005;SDS011;63553;51.814;4.600;2023-03-17T08:14:10;2.72;;;2.20;;
75005;SDS011;63553;51.814;4.600;2023-03-17T08:16:35;3.35;;;2.25;;
75005;SDS011;63553;51.814;4.600;2023-03-17T08:19:01;2.65;;;1.90;;
75005;SDS011;63553;51.814;4.600;2023-03-17T08:21:28;3.15;;;2.40;;
75005;SDS011;63553;51.814;4.600;2023-03-17T08:23:53;3.77;;;2.43;;
75005;SDS011;63553;51.814;4.600;2023-03-17T08:26:18;6.95;;;2.65;;
75005;SDS011;63553;51.814;4.600;2023-03-17T08:28:45;2.42;;;2.17;;
75005;SDS011;63553;51.814;4.600;2023-03-17T08:31:12;3.95;;;2.10;;
75005;SDS011;63553;51.814;4.600;2023-03-17T08:33:40;4.20;;;2.40;;
75005;SDS011;63553;51.814;4.600;2023-03-17T08:36:07;3.92;;;2.55;;
75005;SDS011;63553;51.814;4.600;2023-03-17T08:38:34;2.42;;;2.08;;
75005;SDS011;63553;51.814;4.600;2023-03-17T08:41:01;4.68;;;2.10;;
75005;SDS011;63553;51.814;4.600;2023-03-17T08:43:28;4.85;;;2.20;;
75005;SDS011;63553;51.814;4.600;2023-03-17T08:46:00;8.30;;;2.50;;
75005;SDS011;63553;51.814;4.600;2023-03-17T08:50:56;11.35;;;2.45;;
75005;SDS011;63553;51.814;4.600;2023-03-17T08:53:22;6.22;;;2.42;;
75005;SDS011;63553;51.814;4.600;2023-03-17T08:55:48;3.70;;;2.40;;
75005;SDS011;63553;51.814;4.600;2023-03-17T08:58:13;4.45;;;2.45;;
75005;SDS011;63553;51.814;4.600;2023-03-17T09:00:39;4.70;;;2.60;;
75005;SDS011;63553;51.814;4.600;2023-03-17T09:03:04;6.25;;;2.65;;
75005;SDS011;63553;51.814;4.600;2023-03-17T09:05:30;3.17;;;2.70;;
75005;SDS011;63553;51.814;4.600;2023-03-17T09:07:56;3.17;;;2.35;;
75005;SDS011;63553;51.814;4.600;2023-03-17T09:10:21;2.75;;;2.50;;
75005;SDS011;63553;51.814;4.600;2023-03-17T09:12:48;2.30;;;2.10;;
75005;SDS011;63553;51.814;4.600;2023-03-17T09:15:14;3.92;;;2.65;;
75005;SDS011;63553;51.814;4.600;2023-03-17T09:17:40;4.13;;;2.72;;
75005;SDS011;63553;51.814;4.600;2023-03-17T09:20:07;3.58;;;2.60;;
75005;SDS011;63553;51.814;4.600;2023-03-17T09:22:35;3.53;;;2.33;;
75005;SDS011;63553;51.814;4.600;2023-03-17T09:25:00;3.85;;;2.50;;
75005;SDS011;63553;51.814;4.600;2023-03-17T09:27:26;3.60;;;2.60;;
75005;SDS011;63553;51.814;4.600;2023-03-17T09:29:51;3.13;;;2.45;;
75005;SDS011;63553;51.814;4.600;2023-03-17T09:32:17;3.00;;;2.22;;
75005;SDS011;63553;51.814;4.600;2023-03-17T09:34:42;3.10;;;2.40;;
75005;SDS011;63553;51.814;4.600;2023-03-17T09:37:07;4.82;;;2.60;;
75005;SDS011;63553;51.814;4.600;2023-03-17T09:39:33;6.50;;;2.85;;
75005;SDS011;63553;51.814;4.600;2023-03-17T09:44:50;4.90;;;2.38;;
75005;SDS011;63553;51.814;4.600;2023-03-17T09:50:18;2.88;;;2.40;;
75005;SDS011;63553;51.814;4.600;2023-03-17T09:52:49;6.82;;;2.63;;
75005;SDS011;63553;51.814;4.600;2023-03-17T09:55:21;9.75;;;2.80;;
75005;SDS011;63553;51.814;4.600;2023-03-17T09:57:51;4.78;;;2.95;;
75005;SDS011;63553;51.814;4.600;2023-03-17T10:00:21;7.30;;;3.60;;
75005;SDS011;63553;51.814;4.600;2023-03-17T10:02:51;10.75;;;5.47;;
75005;SDS011;63553;51.814;4.600;2023-03-17T10:05:19;16.30;;;6.05;;
75005;SDS011;63553;51.814;4.600;2023-03-17T10:07:54;6.95;;;3.90;;
75005;SDS011;63553;51.814;4.600;2023-03-17T10:10:39;6.65;;;3.20;;
75005;SDS011;63553;51.814;4.600;2023-03-17T10:16:11;8.65;;;3.78;;
75005;SDS011;63553;51.814;4.600;2023-03-17T10:21:33;5.38;;;3.45;;
75005;SDS011;63553;51.814;4.600;2023-03-17T10:24:12;7.35;;;3.70;;
75005;SDS011;63553;51.814;4.600;2023-03-17T10:26:50;8.57;;;3.92;;
75005;SDS011;63553;51.814;4.600;2023-03-17T10:29:20;7.40;;;3.65;;
75005;SDS011;63553;51.814;4.600;2023-03-17T10:31:48;4.80;;;3.47;;
75005;SDS011;63553;51.814;4.600;2023-03-17T10:34:15;7.00;;;3.75;;
75005;SDS011;63553;51.814;4.600;2023-03-17T10:36:47;7.43;;;3.70;;
75005;SDS011;63553;51.814;4.600;2023-03-17T10:39:19;9.25;;;3.78;;
75005;SDS011;63553;51.814;4.600;2023-03-17T10:41:51;8.20;;;3.45;;
75005;SDS011;63553;51.814;4.600;2023-03-17T10:47:18;8.48;;;3.60;;
75005;SDS011;63553;51.814;4.600;2023-03-17T10:49:46;8.63;;;3.88;;
75005;SDS011;63553;51.814;4.600;2023-03-17T10:52:17;5.22;;;3.20;;
75005;SDS011;63553;51.814;4.600;2023-03-17T10:54:54;5.97;;;2.83;;
75005;SDS011;63553;51.814;4.600;2023-03-17T10:57:24;6.25;;;3.15;;
75005;SDS011;63553;51.814;4.600;2023-03-17T10:59:50;3.85;;;2.55;;
75005;SDS011;63553;51.814;4.600;2023-03-17T11:02:20;5.10;;;2.90;;
75005;SDS011;63553;51.814;4.600;2023-03-17T11:04:52;3.83;;;3.10;;
75005;SDS011;63553;51.814;4.600;2023-03-17T11:07:20;3.58;;;3.17;;
75005;SDS011;63553;51.814;4.600;2023-03-17T11:09:55;5.65;;;3.08;;
75005;SDS011;63553;51.814;4.600;2023-03-17T11:12:25;3.85;;;2.65;;
75005;SDS011;63553;51.814;4.600;2023-03-17T11:15:04;8.30;;;3.00;;
75005;SDS011;63553;51.814;4.600;2023-03-17T11:25:40;84.22;;;26.05;;
75005;SDS011;63553;51.814;4.600;2023-03-17T11:30:57;32.88;;;10.10;;
75005;SDS011;63553;51.814;4.600;2023-03-17T11:33:38;27.75;;;9.43;;
75005;SDS011;63553;51.814;4.600;2023-03-17T11:39:09;14.00;;;5.65;;
75005;SDS011;63553;51.814;4.600;2023-03-17T11:41:49;11.10;;;4.65;;
75005;SDS011;63553;51.814;4.600;2023-03-17T11:47:07;10.18;;;4.15;;
75005;SDS011;63553;51.814;4.600;2023-03-17T11:52:48;6.63;;;3.58;;
75005;SDS011;63553;51.814;4.600;2023-03-17T11:55:23;6.63;;;3.85;;
75005;SDS011;63553;51.814;4.600;2023-03-17T11:58:00;5.68;;;3.80;;
75005;SDS011;63553;51.814;4.600;2023-03-17T12:00:30;9.23;;;3.95;;
75005;SDS011;63553;51.814;4.600;2023-03-17T12:03:32;6.55;;;3.95;;
75005;SDS011;63553;51.814;4.600;2023-03-17T12:06:04;20.40;;;6.93;;
75005;SDS011;63553;51.814;4.600;2023-03-17T12:08:41;107.68;;;15.88;;
75005;SDS011;63553;51.814;4.600;2023-03-17T12:11:11;1999.90;;;624.80;;
75005;SDS011;63553;51.814;4.600;2023-03-17T12:13:40;1999.90;;;676.33;;
75005;SDS011;63553;51.814;4.600;2023-03-17T12:16:38;453.42;;;101.30;;
75005;SDS011;63553;51.814;4.600;2023-03-17T12:21:42;12.25;;;4.32;;
75005;SDS011;63553;51.814;4.600;2023-03-17T12:31:51;8.93;;;3.25;;
75005;SDS011;63553;51.814;4.600;2023-03-17T12:37:05;8.60;;;3.30;;
75005;SDS011;63553;51.814;4.600;2023-03-17T12:39:32;12.18;;;3.65;;
75005;SDS011;63553;51.814;4.600;2023-03-17T12:44:35;8.02;;;2.78;;
75005;SDS011;63553;51.814;4.600;2023-03-17T12:53:11;11.10;;;3.40;;
75005;SDS011;63553;51.814;4.600;2023-03-17T12:55:57;7.10;;;3.20;;
75005;SDS011;63553;51.814;4.600;2023-03-17T12:58:37;7.55;;;3.00;;
75005;SDS011;63553;51.814;4.600;2023-03-17T13:03:33;4.70;;;2.80;;
75005;SDS011;63553;51.814;4.600;2023-03-17T13:06:03;5.13;;;2.50;;
75005;SDS011;63553;51.814;4.600;2023-03-17T13:08:35;7.50;;;2.90;;
75005;SDS011;63553;51.814;4.600;2023-03-17T13:11:26;8.85;;;3.85;;
75005;SDS011;63553;51.814;4.600;2023-03-17T13:17:03;6.93;;;2.63;;
75005;SDS011;63553;51.814;4.600;2023-03-17T13:46:55;3.55;;;2.20;;
75005;SDS011;63553;51.814;4.600;2023-03-17T13:49:50;6.25;;;2.80;;
75005;SDS011;63553;51.814;4.600;2023-03-17T13:52:30;4.88;;;2.67;;
75005;SDS011;63553;51.814;4.600;2023-03-17T13:57:42;6.07;;;4.00;;
75005;SDS011;63553;51.814;4.600;2023-03-17T14:00:42;5.70;;;3.85;;
75005;SDS011;63553;51.814;4.600;2023-03-17T14:03:12;9.40;;;3.70;;
75005;SDS011;63553;51.814;4.600;2023-03-17T14:05:46;5.53;;;3.83;;
75005;SDS011;63553;51.814;4.600;2023-03-17T14:10:57;7.15;;;3.38;;
75005;SDS011;63553;51.814;4.600;2023-03-17T14:16:01;3.85;;;3.25;;
75005;SDS011;63553;51.814;4.600;2023-03-17T14:18:34;6.63;;;4.00;;
75005;SDS011;63553;51.814;4.600;2023-03-17T14:21:05;5.85;;;4.00;;
75005;SDS011;63553;51.814;4.600;2023-03-17T14:23:50;7.75;;;3.72;;
75005;SDS011;63553;51.814;4.600;2023-03-17T14:26:16;6.53;;;3.72;;
75005;SDS011;63553;51.814;4.600;2023-03-17T14:28:42;7.18;;;4.32;;
75005;SDS011;63553;51.814;4.600;2023-03-17T14:31:15;4.47;;;3.63;;
75005;SDS011;63553;51.814;4.600;2023-03-17T14:33:46;6.50;;;3.60;;
75005;SDS011;63553;51.814;4.600;2023-03-17T14:36:11;5.57;;;3.90;;
75005;SDS011;63553;51.814;4.600;2023-03-17T14:38:38;4.10;;;3.25;;
75005;SDS011;63553;51.814;4.600;2023-03-17T14:43:39;6.55;;;4.00;;
75005;SDS011;63553;51.814;4.600;2023-03-17T14:46:11;9.48;;;4.13;;
75005;SDS011;63553;51.814;4.600;2023-03-17T14:48:40;5.65;;;3.40;;
75005;SDS011;63553;51.814;4.600;2023-03-17T14:53:39;7.65;;;3.95;;
75005;SDS011;63553;51.814;4.600;2023-03-17T14:56:07;8.90;;;5.05;;
75005;SDS011;63553;51.814;4.600;2023-03-17T14:58:43;6.93;;;4.15;;
75005;SDS011;63553;51.814;4.600;2023-03-17T15:04:05;6.55;;;4.55;;
75005;SDS011;63553;51.814;4.600;2023-03-17T15:06:45;9.60;;;5.10;;
75005;SDS011;63553;51.814;4.600;2023-03-17T15:09:18;10.50;;;5.63;;
75005;SDS011;63553;51.814;4.600;2023-03-17T15:11:48;9.13;;;4.13;;
75005;SDS011;63553;51.814;4.600;2023-03-17T15:16:50;7.97;;;4.57;;
75005;SDS011;63553;51.814;4.600;2023-03-17T15:21:52;7.57;;;4.10;;
75005;SDS011;63553;51.814;4.600;2023-03-17T15:24:24;5.40;;;3.83;;
75005;SDS011;63553;51.814;4.600;2023-03-17T15:27:03;10.55;;;4.75;;
75005;SDS011;63553;51.814;4.600;2023-03-17T15:29:31;5.88;;;3.70;;
75005;SDS011;63553;51.814;4.600;2023-03-17T15:32:13;4.05;;;3.42;;
75005;SDS011;63553;51.814;4.600;2023-03-17T15:34:43;7.90;;;3.85;;
75005;SDS011;63553;51.814;4.600;2023-03-17T15:37:15;5.47;;;4.28;;
75005;SDS011;63553;51.814;4.600;2023-03-17T15:39:41;3.83;;;3.40;;
75005;SDS011;63553;51.814;4.600;2023-03-17T15:42:06;7.07;;;4.00;;
75005;SDS011;63553;51.814;4.600;2023-03-17T15:44:32;5.85;;;4.10;;
75005;SDS011;63553;51.814;4.600;2023-03-17T15:46:58;6.17;;;3.90;;
75005;SDS011;63553;51.814;4.600;2023-03-17T15:49:24;5.28;;;3.83;;
75005;SDS011;63553;51.814;4.600;2023-03-17T15:51:49;5.72;;;3.78;;
75005;SDS011;63553;51.814;4.600;2023-03-17T15:54:16;5.15;;;3.42;;
75005;SDS011;63553;51.814;4.600;2023-03-17T15:56:41;8.25;;;4.35;;
75005;SDS011;63553;51.814;4.600;2023-03-17T15:59:07;5.22;;;3.97;;
75005;SDS011;63553;51.814;4.600;2023-03-17T16:01:33;5.38;;;3.88;;
75005;SDS011;63553;51.814;4.600;2023-03-17T16:03:59;7.80;;;3.58;;
75005;SDS011;63553;51.814;4.600;2023-03-17T16:06:25;7.70;;;3.72;;
75005;SDS011;63553;51.814;4.600;2023-03-17T16:08:51;6.57;;;3.75;;
75005;SDS011;63553;51.814;4.600;2023-03-17T16:11:20;6.18;;;3.60;;
75005;SDS011;63553;51.814;4.600;2023-03-17T16:13:52;3.42;;;3.05;;
75005;SDS011;63553;51.814;4.600;2023-03-17T16:16:20;8.45;;;3.80;;
75005;SDS011;63553;51.814;4.600;2023-03-17T16:18:52;4.88;;;2.97;;
75005;SDS011;63553;51.814;4.600;2023-03-17T16:21:17;7.03;;;3.60;;
75005;SDS011;63553;51.814;4.600;2023-03-17T16:23:43;5.85;;;3.45;;
75005;SDS011;63553;51.814;4.600;2023-03-17T16:26:09;4.68;;;3.15;;
75005;SDS011;63553;51.814;4.600;2023-03-17T16:28:35;7.35;;;3.42;;
75005;SDS011;63553;51.814;4.600;2023-03-17T16:31:00;7.80;;;3.20;;
75005;SDS011;63553;51.814;4.600;2023-03-17T16:33:35;4.38;;;3.60;;
75005;SDS011;63553;51.814;4.600;2023-03-17T16:36:03;7.72;;;3.30;;
75005;SDS011;63553;51.814;4.600;2023-03-17T16:38:30;4.85;;;3.80;;
75005;SDS011;63553;51.814;4.600;2023-03-17T16:41:00;5.68;;;3.33;;
75005;SDS011;63553;51.814;4.600;2023-03-17T16:43:32;23.52;;;6.60;;
75005;SDS011;63553;51.814;4.600;2023-03-17T16:46:02;6.57;;;3.45;;
75005;SDS011;63553;51.814;4.600;2023-03-17T16:48:29;7.57;;;3.10;;
75005;SDS011;63553;51.814;4.600;2023-03-17T16:50:55;6.68;;;3.10;;
75005;SDS011;63553;51.814;4.600;2023-03-17T16:53:22;5.47;;;3.50;;
75005;SDS011;63553;51.814;4.600;2023-03-17T16:55:48;4.63;;;3.20;;